sensor_id;sensor_type;location;lat;lon;timestamp;pressure;altitude;pressure_sealevel;temperature;humidity
45327;BME280;31062;49.678;24.560;2023-07-02T00:01:23;97248.59;;;20.35;73.64
45327;BME280;31062;49.678;24.560;2023-07-02T00:04:08;97225.66;;;20.19;75.63
45327;BME280;31062;49.678;24.560;2023-07-02T00:06:54;97261.69;;;20.24;76.61
45327;BME280;31062;49.678;24.560;2023-07-02T00:09:40;97237.94;;;20.04;77.31
45327;BME280;31062;49.678;24.560;2023-07-02T00:12:26;97263.81;;;20.26;77.37
45327;BME280;31062;49.678;24.560;2023-07-02T00:15:11;97265.41;;;20.33;77.15
45327;BME280;31062;49.678;24.560;2023-07-02T00:17:57;97093.97;;;19.24;76.76
45327;BME280;31062;49.678;24.560;2023-07-02T00:20:43;97259.94;;;20.39;76.75
45327;BME280;31062;49.678;24.560;2023-07-02T00:23:29;97143.91;;;19.53;76.75
45327;BME280;31062;49.678;24.560;2023-07-02T00:26:15;97258.41;;;20.34;77.16
45327;BME280;31062;49.678;24.560;2023-07-02T00:29:01;97227.41;;;20.04;77.61
45327;BME280;31062;49.678;24.560;2023-07-02T00:31:50;97124.09;;;19.47;77.65
45327;BME280;31062;49.678;24.560;2023-07-02T00:34:35;97243.88;;;20.16;77.87
45327;BME280;31062;49.678;24.560;2023-07-02T00:37:20;97099.94;;;19.38;77.72
45327;BME280;31062;49.678;24.560;2023-07-02T00:40:06;97252.44;;;20.50;77.79
45327;BME280;31062;49.678;24.560;2023-07-02T00:42:52;97244.75;;;20.52;77.60
45327;BME280;31062;49.678;24.560;2023-07-02T00:45:38;97213.66;;;20.46;77.50
45327;BME280;31062;49.678;24.560;2023-07-02T00:48:24;97096.56;;;19.71;77.30
45327;BME280;31062;49.678;24.560;2023-07-02T00:51:12;97098.09;;;19.76;77.36
45327;BME280;31062;49.678;24.560;2023-07-02T00:53:59;97108.69;;;19.80;77.36
45327;BME280;31062;49.678;24.560;2023-07-02T00:56:45;97132.84;;;19.89;77.46
45327;BME280;31062;49.678;24.560;2023-07-02T00:59:33;97100.41;;;19.56;78.02
45327;BME280;31062;49.678;24.560;2023-07-02T01:02:21;97244.47;;;20.40;77.68
45327;BME280;31062;49.678;24.560;2023-07-02T01:05:06;97245.31;;;20.17;78.11
45327;BME280;31062;49.678;24.560;2023-07-02T01:07:53;97250.44;;;19.96;78.84
45327;BME280;31062;49.678;24.560;2023-07-02T01:10:39;97094.66;;;18.70;79.34
45327;BME280;31062;49.678;24.560;2023-07-02T01:13:25;97112.59;;;18.85;79.85
45327;BME280;31062;49.678;24.560;2023-07-02T01:16:11;97091.06;;;18.68;80.21
45327;BME280;31062;49.678;24.560;2023-07-02T01:18:56;97220.06;;;19.63;80.41
45327;BME280;31062;49.678;24.560;2023-07-02T01:21:42;97062.91;;;18.64;80.05
45327;BME280;31062;49.678;24.560;2023-07-02T01:24:28;97089.09;;;18.98;79.86
45327;BME280;31062;49.678;24.560;2023-07-02T01:27:14;97129.16;;;19.27;79.35
45327;BME280;31062;49.678;24.560;2023-07-02T01:30:00;97105.09;;;19.20;79.14
45327;BME280;31062;49.678;24.560;2023-07-02T01:32:45;97077.41;;;19.08;78.95
45327;BME280;31062;49.678;24.560;2023-07-02T01:35:30;97069.75;;;19.10;78.58
45327;BME280;31062;49.678;24.560;2023-07-02T01:38:16;97095.66;;;19.35;78.26
45327;BME280;31062;49.678;24.560;2023-07-02T01:41:01;97235.78;;;20.30;78.11
45327;BME280;31062;49.678;24.560;2023-07-02T01:43:47;97079.38;;;19.31;77.73
45327;BME280;31062;49.678;24.560;2023-07-02T01:46:33;97189.13;;;20.21;77.62
45327;BME280;31062;49.678;24.560;2023-07-02T01:49:19;97077.59;;;19.44;76.97
45327;BME280;31062;49.678;24.560;2023-07-02T01:52:05;97079.13;;;19.47;76.84
45327;BME280;31062;49.678;24.560;2023-07-02T01:54:51;97077.78;;;19.50;76.43
45327;BME280;31062;49.678;24.560;2023-07-02T01:57:37;97215.00;;;20.43;76.63
45327;BME280;31062;49.678;24.560;2023-07-02T02:00:23;97119.09;;;19.73;76.43
45327;BME280;31062;49.678;24.560;2023-07-02T02:03:10;97100.78;;;19.72;76.39
45327;BME280;31062;49.678;24.560;2023-07-02T02:05:55;97120.75;;;19.84;76.54
45327;BME280;31062;49.678;24.560;2023-07-02T02:08:40;97114.84;;;19.72;76.58
45327;BME280;31062;49.678;24.560;2023-07-02T02:11:28;97081.84;;;19.45;76.38
45327;BME280;31062;49.678;24.560;2023-07-02T02:14:13;97234.84;;;20.49;76.54
45327;BME280;31062;49.678;24.560;2023-07-02T02:16:59;97200.38;;;20.21;76.32
45327;BME280;31062;49.678;24.560;2023-07-02T02:19:44;97208.25;;;20.26;76.49
45327;BME280;31062;49.678;24.560;2023-07-02T02:22:30;97226.34;;;20.47;76.61
45327;BME280;31062;49.678;24.560;2023-07-02T02:25:15;97241.13;;;20.48;76.73
45327;BME280;31062;49.678;24.560;2023-07-02T02:28:00;97201.91;;;20.26;76.42
45327;BME280;31062;49.678;24.560;2023-07-02T02:30:46;97228.44;;;20.47;76.52
45327;BME280;31062;49.678;24.560;2023-07-02T02:33:32;97073.25;;;19.39;76.28
45327;BME280;31062;49.678;24.560;2023-07-02T02:36:18;97221.34;;;20.44;76.61
45327;BME280;31062;49.678;24.560;2023-07-02T02:39:03;97237.53;;;20.43;76.68
45327;BME280;31062;49.678;24.560;2023-07-02T02:41:50;97073.16;;;19.35;76.67
45327;BME280;31062;49.678;24.560;2023-07-02T02:44:38;97219.00;;;20.34;76.51
45327;BME280;31062;49.678;24.560;2023-07-02T02:47:24;97107.78;;;19.43;76.83
45327;BME280;31062;49.678;24.560;2023-07-02T02:50:12;97221.66;;;20.28;77.27
45327;BME280;31062;49.678;24.560;2023-07-02T02:52:57;97185.06;;;19.98;77.39
45327;BME280;31062;49.678;24.560;2023-07-02T02:55:43;97222.94;;;20.23;77.67
45327;BME280;31062;49.678;24.560;2023-07-02T02:58:28;97083.97;;;19.18;77.82
45327;BME280;31062;49.678;24.560;2023-07-02T03:01:14;97177.00;;;19.84;77.73
45327;BME280;31062;49.678;24.560;2023-07-02T03:04:00;97089.66;;;19.21;77.79
45327;BME280;31062;49.678;24.560;2023-07-02T03:06:45;97232.72;;;20.20;78.00
45327;BME280;31062;49.678;24.560;2023-07-02T03:09:31;97185.59;;;19.90;77.59
45327;BME280;31062;49.678;24.560;2023-07-02T03:12:16;97230.56;;;20.18;77.52
45327;BME280;31062;49.678;24.560;2023-07-02T03:15:02;97205.47;;;19.98;77.49
45327;BME280;31062;49.678;24.560;2023-07-02T03:17:47;97162.50;;;19.66;77.28
45327;BME280;31062;49.678;24.560;2023-07-02T03:20:33;97242.59;;;20.21;77.46
45327;BME280;31062;49.678;24.560;2023-07-02T03:23:18;97209.66;;;19.97;77.54
45327;BME280;31062;49.678;24.560;2023-07-02T03:26:03;97069.53;;;19.02;77.45
45327;BME280;31062;49.678;24.560;2023-07-02T03:28:49;97097.53;;;19.26;77.29
45327;BME280;31062;49.678;24.560;2023-07-02T03:31:35;97252.06;;;20.33;77.26
45327;BME280;31062;49.678;24.560;2023-07-02T03:34:20;97221.38;;;20.16;76.95
45327;BME280;31062;49.678;24.560;2023-07-02T03:37:07;97091.81;;;19.22;76.56
45327;BME280;31062;49.678;24.560;2023-07-02T03:39:53;97117.56;;;19.40;76.48
45327;BME280;31062;49.678;24.560;2023-07-02T03:42:38;97156.78;;;19.62;76.52
45327;BME280;31062;49.678;24.560;2023-07-02T03:45:23;97239.69;;;20.17;76.74
45327;BME280;31062;49.678;24.560;2023-07-02T03:48:09;97097.28;;;19.16;76.94
45327;BME280;31062;49.678;24.560;2023-07-02T03:50:54;97230.78;;;19.98;76.92
45327;BME280;31062;49.678;24.560;2023-07-02T03:53:43;97256.84;;;20.29;77.21
45327;BME280;31062;49.678;24.560;2023-07-02T03:56:28;97178.13;;;19.73;77.50
45327;BME280;31062;49.678;24.560;2023-07-02T03:59:14;97263.91;;;20.30;77.45
45327;BME280;31062;49.678;24.560;2023-07-02T04:01:59;97139.59;;;19.50;77.43
45327;BME280;31062;49.678;24.560;2023-07-02T04:04:44;97261.16;;;20.32;77.42
45327;BME280;31062;49.678;24.560;2023-07-02T04:07:47;97249.69;;;20.24;77.50
45327;BME280;31062;49.678;24.560;2023-07-02T04:10:38;97196.53;;;19.78;77.64
45327;BME280;31062;49.678;24.560;2023-07-02T04:13:23;97105.41;;;19.32;77.58
45327;BME280;31062;49.678;24.560;2023-07-02T04:16:08;97218.53;;;20.14;77.38
45327;BME280;31062;49.678;24.560;2023-07-02T04:18:53;97120.56;;;19.46;77.36
45327;BME280;31062;49.678;24.560;2023-07-02T04:21:39;97257.22;;;20.43;77.44
45327;BME280;31062;49.678;24.560;2023-07-02T04:24:25;97278.59;;;20.54;77.71
45327;BME280;31062;49.678;24.560;2023-07-02T04:27:11;97242.69;;;20.25;77.82
45327;BME280;31062;49.678;24.560;2023-07-02T04:30:18;97282.84;;;20.55;77.83
45327;BME280;31062;49.678;24.560;2023-07-02T04:33:04;97290.09;;;20.64;78.10
45327;BME280;31062;49.678;24.560;2023-07-02T04:35:50;97237.63;;;20.19;78.27
45327;BME280;31062;49.678;24.560;2023-07-02T04:38:35;97287.31;;;20.66;78.86
45327;BME280;31062;49.678;24.560;2023-07-02T04:41:21;97245.50;;;20.25;78.74
45327;BME280;31062;49.678;24.560;2023-07-02T04:44:06;97129.56;;;19.43;79.08
45327;BME280;31062;49.678;24.560;2023-07-02T04:46:51;97136.13;;;19.51;79.45
45327;BME280;31062;49.678;24.560;2023-07-02T04:49:40;97205.63;;;20.05;79.33
45327;BME280;31062;49.678;24.560;2023-07-02T04:52:26;97271.59;;;20.55;79.12
45327;BME280;31062;49.678;24.560;2023-07-02T04:55:12;97117.28;;;19.56;78.39
45327;BME280;31062;49.678;24.560;2023-07-02T04:57:57;97151.03;;;19.86;78.42
45327;BME280;31062;49.678;24.560;2023-07-02T05:00:43;97278.38;;;20.76;78.78
45327;BME280;31062;49.678;24.560;2023-07-02T05:03:28;97269.53;;;20.90;78.31
45327;BME280;31062;49.678;24.560;2023-07-02T05:06:13;97160.22;;;20.18;77.84
45327;BME280;31062;49.678;24.560;2023-07-02T05:08:59;97288.28;;;21.11;77.61
45327;BME280;31062;49.678;24.560;2023-07-02T05:11:44;97270.22;;;21.22;77.76
45327;BME280;31062;49.678;24.560;2023-07-02T05:14:29;97215.44;;;20.63;77.48
45327;BME280;31062;49.678;24.560;2023-07-02T05:17:15;97261.75;;;21.20;77.86
45327;BME280;31062;49.678;24.560;2023-07-02T05:20:02;97224.72;;;21.02;77.80
45327;BME280;31062;49.678;24.560;2023-07-02T05:22:47;97127.34;;;20.27;78.04
45327;BME280;31062;49.678;24.560;2023-07-02T05:25:32;97280.28;;;21.31;78.70
45327;BME280;31062;49.678;24.560;2023-07-02T05:28:18;97185.84;;;20.62;79.11
45327;BME280;31062;49.678;24.560;2023-07-02T05:31:04;97256.63;;;21.12;79.15
45327;BME280;31062;49.678;24.560;2023-07-02T05:33:49;97288.75;;;21.31;79.35
45327;BME280;31062;49.678;24.560;2023-07-02T05:36:35;97134.53;;;20.32;79.77
45327;BME280;31062;49.678;24.560;2023-07-02T05:39:20;97235.81;;;20.94;79.53
45327;BME280;31062;49.678;24.560;2023-07-02T05:42:07;97291.50;;;21.29;79.41
45327;BME280;31062;49.678;24.560;2023-07-02T05:44:52;97287.31;;;21.30;79.41
45327;BME280;31062;49.678;24.560;2023-07-02T05:47:37;97231.59;;;20.95;79.53
45327;BME280;31062;49.678;24.560;2023-07-02T05:50:23;97317.09;;;21.39;79.70
45327;BME280;31062;49.678;24.560;2023-07-02T05:53:09;97155.75;;;20.37;79.23
45327;BME280;31062;49.678;24.560;2023-07-02T05:55:54;97155.84;;;20.41;78.70
45327;BME280;31062;49.678;24.560;2023-07-02T05:58:41;97146.63;;;20.38;77.50
45327;BME280;31062;49.678;24.560;2023-07-02T06:01:32;97278.84;;;21.30;77.44
45327;BME280;31062;49.678;24.560;2023-07-02T06:04:18;97175.22;;;20.59;76.95
45327;BME280;31062;49.678;24.560;2023-07-02T06:07:03;97144.59;;;20.41;75.94
45327;BME280;31062;49.678;24.560;2023-07-02T06:09:49;97168.78;;;20.54;74.69
45327;BME280;31062;49.678;24.560;2023-07-02T06:12:35;97251.00;;;21.12;75.31
45327;BME280;31062;49.678;24.560;2023-07-02T06:15:20;97269.81;;;21.36;75.42
45327;BME280;31062;49.678;24.560;2023-07-02T06:18:06;97161.09;;;20.57;74.32
45327;BME280;31062;49.678;24.560;2023-07-02T06:20:51;97270.66;;;21.42;74.42
45327;BME280;31062;49.678;24.560;2023-07-02T06:23:43;97152.06;;;20.62;74.35
45327;BME280;31062;49.678;24.560;2023-07-02T06:26:29;97265.16;;;21.50;74.23
45327;BME280;31062;49.678;24.560;2023-07-02T06:29:15;97169.47;;;20.87;73.83
45327;BME280;31062;49.678;24.560;2023-07-02T06:32:00;97156.69;;;20.82;73.06
45327;BME280;31062;49.678;24.560;2023-07-02T06:34:45;97126.69;;;20.60;72.83
45327;BME280;31062;49.678;24.560;2023-07-02T06:37:32;97218.22;;;21.29;72.68
45327;BME280;31062;49.678;24.560;2023-07-02T06:40:17;97150.44;;;20.85;70.94
45327;BME280;31062;49.678;24.560;2023-07-02T06:43:03;97149.78;;;20.89;70.94
45327;BME280;31062;49.678;24.560;2023-07-02T06:45:48;97145.66;;;20.94;70.31
45327;BME280;31062;49.678;24.560;2023-07-02T06:48:33;97124.91;;;20.77;70.30
45327;BME280;31062;49.678;24.560;2023-07-02T06:51:19;97121.44;;;20.81;69.78
45327;BME280;31062;49.678;24.560;2023-07-02T06:54:06;97122.88;;;20.82;69.86
45327;BME280;31062;49.678;24.560;2023-07-02T06:56:51;97188.03;;;21.00;69.42
45327;BME280;31062;49.678;24.560;2023-07-02T06:59:37;97229.25;;;21.53;69.59
45327;BME280;31062;49.678;24.560;2023-07-02T07:02:22;97273.69;;;21.92;69.48
45327;BME280;31062;49.678;24.560;2023-07-02T07:05:08;97185.88;;;21.32;68.24
45327;BME280;31062;49.678;24.560;2023-07-02T07:07:55;97287.22;;;21.98;68.35
45327;BME280;31062;49.678;24.560;2023-07-02T07:10:40;97255.75;;;21.76;68.01
45327;BME280;31062;49.678;24.560;2023-07-02T07:13:26;97152.56;;;21.21;68.11
45327;BME280;31062;49.678;24.560;2023-07-02T07:16:11;97275.34;;;22.06;68.61
45327;BME280;31062;49.678;24.560;2023-07-02T07:18:57;97186.13;;;21.46;68.71
45327;BME280;31062;49.678;24.560;2023-07-02T07:21:42;97141.88;;;21.15;68.68
45327;BME280;31062;49.678;24.560;2023-07-02T07:24:29;97273.38;;;22.14;68.45
45327;BME280;31062;49.678;24.560;2023-07-02T07:27:14;97258.34;;;22.02;68.25
45327;BME280;31062;49.678;24.560;2023-07-02T07:30:01;97255.50;;;21.99;68.49
45327;BME280;31062;49.678;24.560;2023-07-02T07:32:46;97144.78;;;21.19;67.49
45327;BME280;31062;49.678;24.560;2023-07-02T07:35:33;97286.22;;;22.23;68.30
45327;BME280;31062;49.678;24.560;2023-07-02T07:38:19;97287.72;;;22.26;68.75
45327;BME280;31062;49.678;24.560;2023-07-02T07:41:04;97286.34;;;22.29;68.06
45327;BME280;31062;49.678;24.560;2023-07-02T07:43:50;97282.25;;;22.38;68.41
45327;BME280;31062;49.678;24.560;2023-07-02T07:46:36;97253.63;;;22.14;68.72
45327;BME280;31062;49.678;24.560;2023-07-02T07:49:22;97139.38;;;21.33;68.59
45327;BME280;31062;49.678;24.560;2023-07-02T07:52:08;97142.31;;;21.39;68.67
45327;BME280;31062;49.678;24.560;2023-07-02T07:54:53;97277.25;;;22.35;68.11
45327;BME280;31062;49.678;24.560;2023-07-02T07:57:41;97163.78;;;21.58;67.68
45327;BME280;31062;49.678;24.560;2023-07-02T08:00:27;97253.94;;;22.32;68.24
45327;BME280;31062;49.678;24.560;2023-07-02T08:03:12;97238.38;;;22.31;68.57
45327;BME280;31062;49.678;24.560;2023-07-02T08:05:58;97155.78;;;21.85;68.17
45327;BME280;31062;49.678;24.560;2023-07-02T08:08:43;97264.69;;;22.90;68.67
45327;BME280;31062;49.678;24.560;2023-07-02T08:11:29;97286.28;;;23.19;67.77
45327;BME280;31062;49.678;24.560;2023-07-02T08:14:14;97271.16;;;23.55;68.23
45327;BME280;31062;49.678;24.560;2023-07-02T08:17:01;97271.50;;;23.83;65.66
45327;BME280;31062;49.678;24.560;2023-07-02T08:19:47;97223.25;;;23.73;65.65
45327;BME280;31062;49.678;24.560;2023-07-02T08:22:37;97131.56;;;23.26;66.10
45327;BME280;31062;49.678;24.560;2023-07-02T08:25:22;97237.91;;;24.24;65.62
45327;BME280;31062;49.678;24.560;2023-07-02T08:28:08;97122.03;;;23.64;62.25
45327;BME280;31062;49.678;24.560;2023-07-02T08:30:53;97160.50;;;23.97;61.95
45327;BME280;31062;49.678;24.560;2023-07-02T08:33:38;97117.25;;;23.82;60.19
45327;BME280;31062;49.678;24.560;2023-07-02T08:36:24;97114.50;;;23.92;59.94
45327;BME280;31062;49.678;24.560;2023-07-02T08:39:10;97262.53;;;25.06;58.14
45327;BME280;31062;49.678;24.560;2023-07-02T08:41:56;97217.81;;;24.90;57.92
45327;BME280;31062;49.678;24.560;2023-07-02T08:44:48;97239.19;;;25.17;56.67
45327;BME280;31062;49.678;24.560;2023-07-02T08:47:34;97249.94;;;25.37;58.92
45327;BME280;31062;49.678;24.560;2023-07-02T08:50:20;97245.00;;;25.48;60.30
45327;BME280;31062;49.678;24.560;2023-07-02T08:53:06;97184.66;;;25.25;58.83
45327;BME280;31062;49.678;24.560;2023-07-02T08:55:52;97146.31;;;25.12;56.37
45327;BME280;31062;49.678;24.560;2023-07-02T08:58:37;97159.84;;;25.36;58.94
45327;BME280;31062;49.678;24.560;2023-07-02T09:01:23;97147.78;;;25.25;57.59
45327;BME280;31062;49.678;24.560;2023-07-02T09:04:17;97100.97;;;25.24;56.42
45327;BME280;31062;49.678;24.560;2023-07-02T09:07:04;97250.13;;;26.26;56.98
45327;BME280;31062;49.678;24.560;2023-07-02T09:09:50;97051.19;;;24.64;56.12
45327;BME280;31062;49.678;24.560;2023-07-02T09:12:35;97243.03;;;26.37;57.51
45327;BME280;31062;49.678;24.560;2023-07-02T09:15:21;97243.03;;;26.50;57.30
45327;BME280;31062;49.678;24.560;2023-07-02T09:18:21;97105.25;;;25.51;56.57
45327;BME280;31062;49.678;24.560;2023-07-02T09:21:07;97265.06;;;26.57;55.23
45327;BME280;31062;49.678;24.560;2023-07-02T09:23:54;97126.56;;;25.63;55.22
45327;BME280;31062;49.678;24.560;2023-07-02T09:27:00;97143.63;;;25.79;55.74
45327;BME280;31062;49.678;24.560;2023-07-02T09:29:51;97153.56;;;25.90;57.23
45327;BME280;31062;49.678;24.560;2023-07-02T09:32:39;97253.66;;;26.67;56.49
45327;BME280;31062;49.678;24.560;2023-07-02T09:35:25;97112.38;;;25.83;55.48
45327;BME280;31062;49.678;24.560;2023-07-02T09:38:12;97190.44;;;26.40;55.48
45327;BME280;31062;49.678;24.560;2023-07-02T09:40:59;97116.63;;;25.96;55.86
45327;BME280;31062;49.678;24.560;2023-07-02T09:43:45;97268.56;;;26.90;53.22
45327;BME280;31062;49.678;24.560;2023-07-02T09:46:31;97135.06;;;26.11;52.89
45327;BME280;31062;49.678;24.560;2023-07-02T09:49:20;97123.72;;;25.99;51.50
45327;BME280;31062;49.678;24.560;2023-07-02T09:52:10;97194.75;;;26.33;50.56
45327;BME280;31062;49.678;24.560;2023-07-02T09:54:56;97142.19;;;25.84;50.97
45327;BME280;31062;49.678;24.560;2023-07-02T09:57:43;97250.13;;;26.53;52.08
45327;BME280;31062;49.678;24.560;2023-07-02T10:00:28;97123.03;;;25.62;52.60
45327;BME280;31062;49.678;24.560;2023-07-02T10:03:14;97102.44;;;25.43;54.03
45327;BME280;31062;49.678;24.560;2023-07-02T10:06:06;97235.19;;;26.22;54.27
45327;BME280;31062;49.678;24.560;2023-07-02T10:08:54;97224.56;;;26.42;52.71
45327;BME280;31062;49.678;24.560;2023-07-02T10:11:41;97138.63;;;25.75;53.70
45327;BME280;31062;49.678;24.560;2023-07-02T10:14:43;97245.84;;;26.58;54.44
45327;BME280;31062;49.678;24.560;2023-07-02T10:17:32;97241.56;;;26.59;50.93
45327;BME280;31062;49.678;24.560;2023-07-02T10:20:18;97112.38;;;25.69;52.05
45327;BME280;31062;49.678;24.560;2023-07-02T10:23:06;97205.38;;;26.45;50.98
45327;BME280;31062;49.678;24.560;2023-07-02T10:25:52;97092.53;;;25.73;50.70
45327;BME280;31062;49.678;24.560;2023-07-02T10:28:37;97218.84;;;26.65;48.66
45327;BME280;31062;49.678;24.560;2023-07-02T10:31:23;97238.72;;;26.59;49.11
45327;BME280;31062;49.678;24.560;2023-07-02T10:34:08;97223.13;;;26.56;49.31
45327;BME280;31062;49.678;24.560;2023-07-02T10:36:54;97150.69;;;26.04;49.19
45327;BME280;31062;49.678;24.560;2023-07-02T10:39:40;97199.72;;;26.39;49.52
45327;BME280;31062;49.678;24.560;2023-07-02T10:42:26;97034.31;;;25.33;49.14
45327;BME280;31062;49.678;24.560;2023-07-02T10:45:11;97187.59;;;26.55;48.61
45327;BME280;31062;49.678;24.560;2023-07-02T10:47:57;97189.00;;;26.56;48.65
45327;BME280;31062;49.678;24.560;2023-07-02T10:50:42;97218.81;;;26.73;47.37
45327;BME280;31062;49.678;24.560;2023-07-02T10:53:28;97214.56;;;26.66;49.19
45327;BME280;31062;49.678;24.560;2023-07-02T10:56:16;97164.91;;;26.32;48.74
45327;BME280;31062;49.678;24.560;2023-07-02T10:59:02;97176.25;;;26.51;48.92
45327;BME280;31062;49.678;24.560;2023-07-02T11:01:50;97157.06;;;26.41;49.91
45327;BME280;31062;49.678;24.560;2023-07-02T11:04:37;97169.81;;;26.66;52.00
45327;BME280;31062;49.678;24.560;2023-07-02T11:07:23;97055.59;;;25.97;51.36
45327;BME280;31062;49.678;24.560;2023-07-02T11:10:10;97163.34;;;26.86;52.28
45327;BME280;31062;49.678;24.560;2023-07-02T11:12:57;97183.16;;;27.12;50.36
45327;BME280;31062;49.678;24.560;2023-07-02T11:15:43;97157.63;;;27.02;50.22
45327;BME280;31062;49.678;24.560;2023-07-02T11:18:32;97178.88;;;27.21;51.78
45327;BME280;31062;49.678;24.560;2023-07-02T11:21:17;97181.63;;;27.40;52.06
45327;BME280;31062;49.678;24.560;2023-07-02T11:24:05;97107.84;;;27.03;50.22
45327;BME280;31062;49.678;24.560;2023-07-02T11:26:50;97189.41;;;27.51;51.57
45327;BME280;31062;49.678;24.560;2023-07-02T11:29:36;97173.00;;;27.50;49.69
45327;BME280;31062;49.678;24.560;2023-07-02T11:32:23;97104.94;;;27.11;49.87
45327;BME280;31062;49.678;24.560;2023-07-02T11:35:09;97153.16;;;27.40;49.40
45327;BME280;31062;49.678;24.560;2023-07-02T11:37:54;97181.53;;;27.56;50.02
45327;BME280;31062;49.678;24.560;2023-07-02T11:40:40;97056.06;;;26.70;46.24
45327;BME280;31062;49.678;24.560;2023-07-02T11:43:25;97063.19;;;26.71;46.26
45327;BME280;31062;49.678;24.560;2023-07-02T11:46:11;97073.81;;;26.77;44.63
45327;BME280;31062;49.678;24.560;2023-07-02T11:48:57;97202.84;;;27.63;45.49
45327;BME280;31062;49.678;24.560;2023-07-02T11:51:43;97157.38;;;27.47;44.87
45327;BME280;31062;49.678;24.560;2023-07-02T11:54:34;97140.41;;;27.31;44.15
45327;BME280;31062;49.678;24.560;2023-07-02T11:57:20;97184.34;;;27.62;44.03
45327;BME280;31062;49.678;24.560;2023-07-02T12:00:07;97079.47;;;26.87;44.46
45327;BME280;31062;49.678;24.560;2023-07-02T12:02:52;97164.50;;;27.42;43.77
45327;BME280;31062;49.678;24.560;2023-07-02T12:05:38;97081.59;;;26.93;43.82
45327;BME280;31062;49.678;24.560;2023-07-02T12:08:24;97204.19;;;27.74;42.16
45327;BME280;31062;49.678;24.560;2023-07-02T12:11:10;97147.53;;;27.26;43.94
45327;BME280;31062;49.678;24.560;2023-07-02T12:13:57;97166.59;;;27.49;44.30
45327;BME280;31062;49.678;24.560;2023-07-02T12:16:43;97143.25;;;27.33;44.94
45327;BME280;31062;49.678;24.560;2023-07-02T12:19:29;97185.78;;;27.63;44.21
45327;BME280;31062;49.678;24.560;2023-07-02T12:22:14;97141.88;;;27.17;45.87
45327;BME280;31062;49.678;24.560;2023-07-02T12:25:02;97093.69;;;26.93;45.84
45327;BME280;31062;49.678;24.560;2023-07-02T12:27:48;97200.75;;;27.49;45.81
45327;BME280;31062;49.678;24.560;2023-07-02T12:30:34;97053.34;;;26.48;45.70
45327;BME280;31062;49.678;24.560;2023-07-02T12:33:19;97115.75;;;26.80;47.33
45327;BME280;31062;49.678;24.560;2023-07-02T12:36:05;97194.47;;;27.27;48.41
45327;BME280;31062;49.678;24.560;2023-07-02T12:38:50;97091.69;;;26.55;48.04
45327;BME280;31062;49.678;24.560;2023-07-02T12:41:35;97195.94;;;27.21;47.89
45327;BME280;31062;49.678;24.560;2023-07-02T12:44:21;97176.09;;;27.03;48.04
45327;BME280;31062;49.678;24.560;2023-07-02T12:47:06;97206.59;;;27.19;48.40
45327;BME280;31062;49.678;24.560;2023-07-02T12:49:52;97210.19;;;27.11;47.86
45327;BME280;31062;49.678;24.560;2023-07-02T12:52:37;97127.91;;;26.53;48.41
45327;BME280;31062;49.678;24.560;2023-07-02T12:55:30;97169.06;;;26.74;48.41
45327;BME280;31062;49.678;24.560;2023-07-02T12:58:22;97204.56;;;26.95;49.86
45327;BME280;31062;49.678;24.560;2023-07-02T13:01:08;97107.38;;;26.24;49.28
45327;BME280;31062;49.678;24.560;2023-07-02T13:03:54;97220.91;;;27.01;49.32
45327;BME280;31062;49.678;24.560;2023-07-02T13:06:40;97169.09;;;26.66;49.09
45327;BME280;31062;49.678;24.560;2023-07-02T13:09:26;97088.94;;;26.02;49.99
45327;BME280;31062;49.678;24.560;2023-07-02T13:12:11;97220.19;;;26.98;51.32
45327;BME280;31062;49.678;24.560;2023-07-02T13:14:58;97197.47;;;26.90;52.84
45327;BME280;31062;49.678;24.560;2023-07-02T13:17:44;97227.25;;;27.11;51.54
45327;BME280;31062;49.678;24.560;2023-07-02T13:20:30;97125.09;;;26.51;51.97
45327;BME280;31062;49.678;24.560;2023-07-02T13:23:15;97217.28;;;27.20;50.73
45327;BME280;31062;49.678;24.560;2023-07-02T13:26:00;97205.94;;;27.10;49.64
45327;BME280;31062;49.678;24.560;2023-07-02T13:28:46;97166.28;;;26.54;50.32
45327;BME280;31062;49.678;24.560;2023-07-02T13:31:32;97108.09;;;26.06;52.40
45327;BME280;31062;49.678;24.560;2023-07-02T13:34:18;97250.78;;;26.77;54.02
45327;BME280;31062;49.678;24.560;2023-07-02T13:37:04;97248.69;;;26.58;54.69
45327;BME280;31062;49.678;24.560;2023-07-02T13:39:49;97248.69;;;26.46;55.23
45327;BME280;31062;49.678;24.560;2023-07-02T13:42:35;97244.44;;;26.30;55.90
45327;BME280;31062;49.678;24.560;2023-07-02T13:45:21;97099.53;;;25.19;55.97
45327;BME280;31062;49.678;24.560;2023-07-02T13:48:07;97201.09;;;25.83;56.67
45327;BME280;31062;49.678;24.560;2023-07-02T13:50:53;97090.97;;;24.93;56.15
45327;BME280;31062;49.678;24.560;2023-07-02T13:53:39;97231.63;;;25.79;56.56
45327;BME280;31062;49.678;24.560;2023-07-02T13:56:24;97188.94;;;25.42;57.04
45327;BME280;31062;49.678;24.560;2023-07-02T13:59:10;97240.06;;;25.58;56.38
45327;BME280;31062;49.678;24.560;2023-07-02T14:01:55;97217.38;;;25.58;57.19
45327;BME280;31062;49.678;24.560;2023-07-02T14:04:41;97086.63;;;24.73;57.10
45327;BME280;31062;49.678;24.560;2023-07-02T14:07:27;97078.13;;;24.71;57.24
45327;BME280;31062;49.678;24.560;2023-07-02T14:10:13;97042.66;;;24.54;56.34
45327;BME280;31062;49.678;24.560;2023-07-02T14:12:59;97181.16;;;25.51;57.01
45327;BME280;31062;49.678;24.560;2023-07-02T14:15:44;97088.06;;;24.80;56.69
45327;BME280;31062;49.678;24.560;2023-07-02T14:18:30;97199.66;;;25.74;56.11
45327;BME280;31062;49.678;24.560;2023-07-02T14:21:16;97079.59;;;24.87;57.33
45327;BME280;31062;49.678;24.560;2023-07-02T14:24:02;97204.63;;;25.82;58.08
45327;BME280;31062;49.678;24.560;2023-07-02T14:26:48;97197.53;;;25.77;57.88
45327;BME280;31062;49.678;24.560;2023-07-02T14:29:34;97164.84;;;25.53;57.54